Orient Glider Airport

Jump to: basic info | weather | comments

Related pages: nearby airports | nearby navaids | notams | map

Basic information (top)

Codes: FAOI
Location: lon -26.039400, lat 27.595600, elev 5,102 ft / 1,555 m msl
Status: small_airport

Weather (top)

Current conditions for Lanseria Airport 19nm (35km) ENE (rec'd 2015/01/25 20:00Z):

FALA 252000Z 14018KT 9999 -TSRA FEW045CB 18/14 Q1020 NOSIG

Airport forecast for Lanseria Airport 19nm (35km) ENE (rec'd 2015/01/25 12:38Z):

TAF FALA 251000Z 2512/2612 27007KT 9999 SCT045 PROB40 
      TEMPO 2513/2519 4000 TSRA FEW040CB 
      BECMG 2519/2521 VRB02KT CAVOK PROB30 
      TEMPO 2519/2522 -TSRA FEW050CB 
      BECMG 2607/2609 33010KT SCT045 TX32/2612ZTN20/2604Z

Latest comments (top)

Runway Orientation and Airfield Frequency: Runway 36/18 (Main) Runway 11/29 Airfi ... [read]

More... (top)

See also NOTAMs and nearby airports and navaids, or visit the Orient Glider Airport page at the main OurAirports website..